createdAt,value
2017-11-04T00:02:55.539Z,25.47
2017-11-04T00:08:23.716Z,25.70
2017-11-04T00:13:56.325Z,26.17
2017-11-04T00:19:24.472Z,31.13
2017-11-04T00:24:53.382Z,24.60
2017-11-04T00:30:23.523Z,25.10
2017-11-04T00:35:51.706Z,21.57
2017-11-04T00:41:19.848Z,18.40
2017-11-04T00:46:47.992Z,26.13
2017-11-04T00:52:16.919Z,24.97
2017-11-04T00:57:51.388Z,23.53
2017-11-04T01:03:19.546Z,20.90
2017-11-04T01:08:47.978Z,16.43
2017-11-04T01:14:16.153Z,17.90
2017-11-04T01:19:44.572Z,14.70
2017-11-04T01:25:12.753Z,13.47
2017-11-04T01:30:40.939Z,11.37
2017-11-04T01:36:10.798Z,13.23
2017-11-04T01:41:39.764Z,10.73
2017-11-04T01:47:08.608Z,12.67
2017-11-04T01:52:37.070Z,11.70
2017-11-04T01:58:05.277Z,15.20
2017-11-04T02:03:33.730Z,14.33
2017-11-04T02:09:06.786Z,14.63
2017-11-04T02:14:34.941Z,13.60
2017-11-04T02:20:03.134Z,14.53
2017-11-04T02:25:31.279Z,13.33
2017-11-04T02:30:59.402Z,15.60
2017-11-04T02:36:27.538Z,21.47
2017-11-04T02:41:55.689Z,20.13
2017-11-04T02:47:34.425Z,16.47
2017-11-04T02:53:02.581Z,15.23
2017-11-04T02:58:31.487Z,17.03
2017-11-04T03:03:59.636Z,16.13
2017-11-04T03:09:28.797Z,17.43
2017-11-04T03:14:56.943Z,13.00
2017-11-04T03:20:25.088Z,15.40
2017-11-04T03:25:53.227Z,14.20
2017-11-04T03:31:34.000Z,13.37
2017-11-04T03:37:02.179Z,13.33
2017-11-04T03:42:31.126Z,13.97
2017-11-04T03:48:03.057Z,10.63
2017-11-04T03:53:31.201Z,11.80
2017-11-04T03:58:59.343Z,10.87
2017-11-04T04:04:27.496Z,9.60
2017-11-04T04:10:04.322Z,10.20
2017-11-04T04:15:32.451Z,11.10
2017-11-04T04:21:00.588Z,8.90
2017-11-04T04:26:28.817Z,8.40
2017-11-04T04:31:56.979Z,10.03
2017-11-04T04:37:33.255Z,9.10
2017-11-04T04:43:01.399Z,8.90
2017-11-04T04:48:29.587Z,9.80
2017-11-04T04:54:04.717Z,10.33
2017-11-04T04:59:33.647Z,9.63
2017-11-04T05:05:02.547Z,9.23
2017-11-04T05:10:30.661Z,9.47
2017-11-04T05:15:59.851Z,10.93
2017-11-04T05:21:28.751Z,10.40
2017-11-04T05:26:56.875Z,9.37
2017-11-04T05:32:25.013Z,9.20
2017-11-04T05:37:53.150Z,10.10
2017-11-04T05:43:22.075Z,10.23
2017-11-04T05:48:52.959Z,9.33
2017-11-04T05:54:21.091Z,10.03
2017-11-04T05:59:49.995Z,9.00
2017-11-04T06:05:18.122Z,8.20
2017-11-04T06:10:48.207Z,10.40
2017-11-04T06:16:16.330Z,9.40
2017-11-04T06:21:45.365Z,9.43
2017-11-04T06:27:13.514Z,8.93
2017-11-04T06:32:41.642Z,9.20
2017-11-04T06:38:10.068Z,8.97
2017-11-04T06:43:38.264Z,7.50
2017-11-04T06:49:06.395Z,8.87
2017-11-04T06:54:34.548Z,7.17
2017-11-04T07:00:02.709Z,7.70
2017-11-04T07:05:31.594Z,8.20
2017-11-04T07:10:59.729Z,8.20
2017-11-04T07:16:27.845Z,7.97
2017-11-04T07:21:55.985Z,7.53
2017-11-04T07:27:24.124Z,7.87
2017-11-04T07:32:53.020Z,7.60
2017-11-04T07:38:21.163Z,7.80
2017-11-04T07:43:49.274Z,7.20
2017-11-04T07:49:17.416Z,6.90
2017-11-04T07:54:45.557Z,7.33
2017-11-04T08:00:34.189Z,6.93
2017-11-04T08:06:07.536Z,6.17
2017-11-04T08:11:35.716Z,5.17
2017-11-04T08:17:03.929Z,5.27
2017-11-04T08:22:37.179Z,4.90
2017-11-04T08:28:05.462Z,4.97
2017-11-04T08:33:34.647Z,5.27
2017-11-04T08:39:02.792Z,5.37
2017-11-04T08:44:30.944Z,4.70
2017-11-04T08:50:05.948Z,5.60
2017-11-04T09:01:14.563Z,3.20
2017-11-04T09:06:42.725Z,3.60
2017-11-04T09:12:11.914Z,3.37
2017-11-04T09:17:44.619Z,3.07
2017-11-04T09:23:12.880Z,3.87
2017-11-04T09:28:41.029Z,2.90
2017-11-04T09:34:09.189Z,3.03
2017-11-04T09:39:37.370Z,3.40
2017-11-04T09:45:05.572Z,3.00
2017-11-04T09:56:28.011Z,3.17
2017-11-04T10:02:01.457Z,3.70
2017-11-04T10:07:29.667Z,3.73
2017-11-04T10:12:57.804Z,3.80
2017-11-04T10:18:25.941Z,3.00
2017-11-04T10:23:54.103Z,3.00
2017-11-04T10:29:22.272Z,3.40
2017-11-04T10:34:50.448Z,3.70
2017-11-04T10:40:18.619Z,2.50
2017-11-04T10:45:48.769Z,3.37
2017-11-04T10:51:27.744Z,3.13
2017-11-04T10:56:56.661Z,2.90
2017-11-04T11:02:26.546Z,2.63
2017-11-04T11:07:59.943Z,2.90
2017-11-04T11:13:28.373Z,2.67
2017-11-04T11:18:56.600Z,3.10
2017-11-04T11:24:24.766Z,2.77
2017-11-04T11:29:53.106Z,2.67
2017-11-04T11:35:21.270Z,2.50
2017-11-04T11:40:54.677Z,2.80
2017-11-04T11:46:23.373Z,3.50
2017-11-04T11:51:52.527Z,2.70
2017-11-04T11:57:37.863Z,2.57
2017-11-04T12:03:06.023Z,2.80
2017-11-04T12:08:35.758Z,2.30
2017-11-04T12:14:07.615Z,2.80
2017-11-04T12:19:36.535Z,2.80
2017-11-04T12:25:04.720Z,2.80
2017-11-04T12:30:33.133Z,3.03
2017-11-04T12:36:01.308Z,2.67
2017-11-04T12:41:31.420Z,3.07
2017-11-04T12:47:01.806Z,3.27
2017-11-04T12:52:30.089Z,3.80
2017-11-04T12:57:59.014Z,2.97
2017-11-04T13:03:27.181Z,3.80
2017-11-04T13:08:58.637Z,4.10
2017-11-04T13:14:26.884Z,3.97
2017-11-04T13:19:55.016Z,3.77
2017-11-04T13:25:23.416Z,4.00
2017-11-04T13:30:51.740Z,4.33
2017-11-04T13:36:20.749Z,4.37
2017-11-04T13:41:49.970Z,5.20
2017-11-04T13:47:18.144Z,4.17
2017-11-04T13:52:47.063Z,4.47
2017-11-04T13:58:17.342Z,4.50
2017-11-04T14:03:46.404Z,4.40
2017-11-04T14:09:14.722Z,4.07
2017-11-04T14:14:42.893Z,4.00
2017-11-04T14:20:11.040Z,3.90
2017-11-04T14:25:39.217Z,3.13
2017-11-04T14:31:08.119Z,3.80
2017-11-04T14:36:37.307Z,3.70
2017-11-04T14:42:05.778Z,3.70
2017-11-04T14:47:33.971Z,3.73
2017-11-04T14:53:02.130Z,3.50
2017-11-04T14:58:30.277Z,3.90
2017-11-04T15:03:58.570Z,2.90
2017-11-04T15:09:31.849Z,3.90
2017-11-04T15:15:00.045Z,3.83
2017-11-04T15:20:29.167Z,3.97
2017-11-04T15:25:58.094Z,4.50
2017-11-04T15:31:27.038Z,4.30
2017-11-04T15:36:55.955Z,4.00
2017-11-04T15:42:24.107Z,4.40
2017-11-04T15:47:53.001Z,3.70
2017-11-04T15:53:21.169Z,4.20
2017-11-04T15:58:49.336Z,5.00
2017-11-04T16:04:17.491Z,4.63
2017-11-04T16:09:46.412Z,5.83
2017-11-04T16:15:14.603Z,5.40
2017-11-04T16:20:42.758Z,6.10
2017-11-04T16:26:10.923Z,12.23
2017-11-04T16:31:39.091Z,11.63
2017-11-04T16:37:07.292Z,13.77
2017-11-04T16:42:35.489Z,10.60
2017-11-04T16:48:03.675Z,12.00
2017-11-04T16:53:31.817Z,11.30
2017-11-04T16:59:00.082Z,11.27
2017-11-04T17:04:28.260Z,10.60
2017-11-04T17:09:56.433Z,11.23
2017-11-04T17:15:24.578Z,12.40
2017-11-04T17:20:52.746Z,10.60
2017-11-04T17:26:20.952Z,10.60
2017-11-04T17:31:49.140Z,11.33
2017-11-04T17:37:18.933Z,12.35
2017-11-04T17:42:47.377Z,12.20
2017-11-04T17:48:19.026Z,11.90
2017-11-04T17:53:48.154Z,12.00
2017-11-04T17:59:16.303Z,12.37
2017-11-04T18:04:44.443Z,13.27
2017-11-04T18:10:12.618Z,13.00
2017-11-04T18:15:40.818Z,11.13
2017-11-04T18:21:10.928Z,10.73
2017-11-04T18:26:52.462Z,11.60
2017-11-04T18:32:20.609Z,12.87
2017-11-04T18:37:49.913Z,14.60
2017-11-04T18:43:18.831Z,13.60
2017-11-04T18:48:47.032Z,12.73
2017-11-04T18:54:15.195Z,12.57
2017-11-04T18:59:44.323Z,12.50
2017-11-04T19:05:12.467Z,11.60
2017-11-04T19:16:53.394Z,10.60
2017-11-04T19:22:37.337Z,10.67
2017-11-04T19:28:05.731Z,10.70
2017-11-04T19:33:38.927Z,11.00
2017-11-04T19:39:07.133Z,10.90
2017-11-04T19:44:38.969Z,12.37
2017-11-04T19:50:07.229Z,11.53
2017-11-04T19:55:36.201Z,10.53
2017-11-04T20:01:06.380Z,11.27
2017-11-04T20:06:45.978Z,11.77
2017-11-04T20:12:17.279Z,11.37
2017-11-04T20:17:45.441Z,10.23
2017-11-04T20:23:15.304Z,13.17
2017-11-04T20:29:05.393Z,11.53
2017-11-04T20:34:37.269Z,11.00
2017-11-04T20:40:05.442Z,10.17
2017-11-04T20:45:44.243Z,10.17
2017-11-04T20:51:12.519Z,10.63
2017-11-04T20:56:44.020Z,11.33
2017-11-04T21:02:12.183Z,10.50
2017-11-04T21:07:41.179Z,10.67
2017-11-04T21:13:37.300Z,11.63
2017-11-04T21:19:06.696Z,11.97
2017-11-04T21:24:36.145Z,11.80
2017-11-04T21:30:04.405Z,11.37
2017-11-04T21:35:32.596Z,11.97
2017-11-04T21:41:00.891Z,12.10
2017-11-04T21:46:30.327Z,13.37
2017-11-04T21:51:59.371Z,13.40
2017-11-04T21:57:37.711Z,14.20
2017-11-04T22:03:06.084Z,13.40
2017-11-04T22:08:37.902Z,11.43
2017-11-04T22:14:07.398Z,10.67
2017-11-04T22:19:37.415Z,12.20
2017-11-04T22:25:06.656Z,10.80
2017-11-04T22:36:52.917Z,10.20
2017-11-04T22:42:27.862Z,10.33
2017-11-04T22:48:06.441Z,8.17
2017-11-04T22:53:39.140Z,8.57
2017-11-04T22:59:07.309Z,7.80
2017-11-04T23:04:46.732Z,8.33
2017-11-04T23:10:36.119Z,10.15
2017-11-04T23:16:04.261Z,7.97
2017-11-04T23:21:37.195Z,7.20
2017-11-04T23:27:06.868Z,6.83
2017-11-04T23:32:38.809Z,7.53
2017-11-04T23:38:25.004Z,9.20
2017-11-04T23:43:53.142Z,7.77
2017-11-04T23:49:21.304Z,6.67
2017-11-04T23:55:11.066Z,6.33
